createdAt,value
2018-07-28T00:01:28.472Z,76.17
2018-07-28T00:03:58.363Z,76.88
2018-07-28T00:06:27.809Z,76.96
2018-07-28T00:08:57.217Z,77.69
2018-07-28T00:11:26.868Z,78.17
2018-07-28T00:13:56.840Z,78.14
2018-07-28T00:16:26.807Z,78.51
2018-07-28T00:18:56.214Z,78.39
2018-07-28T00:21:25.604Z,78.33
2018-07-28T00:23:55.312Z,78.34
2018-07-28T00:26:25.473Z,78.11
2018-07-28T00:28:54.836Z,77.77
2018-07-28T00:31:24.846Z,78.06
2018-07-28T00:33:54.739Z,77.77
2018-07-28T00:36:24.108Z,77.45
2018-07-28T00:38:53.507Z,76.85
2018-07-28T00:41:23.461Z,76.55
2018-07-28T00:43:52.847Z,76.71
2018-07-28T00:46:22.245Z,77.21
2018-07-28T00:48:51.641Z,77.65
2018-07-28T00:51:21.024Z,77.20
2018-07-28T00:53:50.391Z,77.32
2018-07-28T00:56:19.800Z,76.35
2018-07-28T00:58:49.163Z,76.42
2018-07-28T01:01:19.696Z,76.49
2018-07-28T01:03:49.800Z,76.72
2018-07-28T01:06:19.787Z,76.73
2018-07-28T01:08:49.331Z,76.22
2018-07-28T01:11:19.880Z,76.26
2018-07-28T01:13:49.289Z,76.91
2018-07-28T01:16:19.329Z,77.02
2018-07-28T01:18:48.904Z,76.63
2018-07-28T01:21:18.607Z,76.90
2018-07-28T01:23:48.152Z,77.42
2018-07-28T01:26:17.553Z,76.90
2018-07-28T01:28:55.489Z,77.56
2018-07-28T01:31:25.225Z,77.42
2018-07-28T01:33:54.769Z,76.73
2018-07-28T01:36:24.512Z,77.14
2018-07-28T01:38:54.747Z,76.92
2018-07-28T01:41:24.386Z,77.50
2018-07-28T01:43:53.760Z,77.24
2018-07-28T01:46:28.196Z,77.24
2018-07-28T01:49:01.653Z,77.01
2018-07-28T01:51:31.668Z,77.33
2018-07-28T01:54:01.082Z,77.48
2018-07-28T01:56:30.766Z,77.12
2018-07-28T01:59:06.027Z,77.03
2018-07-28T02:01:37.384Z,77.04
2018-07-28T02:04:07.454Z,77.23
2018-07-28T02:06:36.994Z,76.67
2018-07-28T02:09:11.572Z,76.72
2018-07-28T02:11:41.671Z,76.17
2018-07-28T02:14:11.079Z,76.53
2018-07-28T02:16:40.566Z,76.15
2018-07-28T02:19:12.475Z,75.83
2018-07-28T02:21:43.789Z,75.94
2018-07-28T02:24:13.831Z,76.43
2018-07-28T02:26:43.262Z,76.76
2018-07-28T02:29:12.877Z,76.46
2018-07-28T02:31:42.633Z,76.11
2018-07-28T02:34:12.053Z,77.03
2018-07-28T02:36:41.460Z,77.53
2018-07-28T02:39:12.253Z,77.48
2018-07-28T02:41:41.929Z,77.71
2018-07-28T02:44:11.340Z,77.62
2018-07-28T02:46:40.726Z,78.06
2018-07-28T02:49:10.129Z,77.78
2018-07-28T02:51:39.575Z,77.95
2018-07-28T02:54:08.957Z,77.64
2018-07-28T02:56:38.324Z,77.05
2018-07-28T02:59:07.733Z,76.89
2018-07-28T03:01:37.750Z,76.60
2018-07-28T03:04:07.276Z,76.74
2018-07-28T03:06:36.672Z,77.09
2018-07-28T03:09:09.676Z,77.94
2018-07-28T03:11:39.600Z,77.44
2018-07-28T03:14:09.577Z,77.38
2018-07-28T03:16:39.306Z,77.76
2018-07-28T03:19:09.775Z,78.14
2018-07-28T03:21:39.138Z,78.56
2018-07-28T03:24:08.523Z,78.64
2018-07-28T03:26:37.894Z,78.94
2018-07-28T03:29:07.591Z,79.30
2018-07-28T03:31:38.097Z,79.21
2018-07-28T03:34:07.564Z,79.21
2018-07-28T03:36:37.255Z,79.11
2018-07-28T03:39:10.101Z,79.31
2018-07-28T03:41:40.874Z,79.15
2018-07-28T03:44:10.632Z,78.72
2018-07-28T03:46:40.054Z,78.76
2018-07-28T03:49:09.483Z,78.96
2018-07-28T03:51:39.371Z,79.07
2018-07-28T03:54:09.428Z,79.24
2018-07-28T03:56:39.754Z,78.70
2018-07-28T03:59:09.155Z,78.76
2018-07-28T04:01:38.530Z,79.39
2018-07-28T04:04:07.944Z,79.20
2018-07-28T04:06:37.582Z,80.25
2018-07-28T04:09:09.593Z,80.71
2018-07-28T04:11:40.906Z,80.90
2018-07-28T04:14:11.577Z,80.61
2018-07-28T04:16:41.463Z,80.87
2018-07-28T04:19:10.820Z,80.72
2018-07-28T04:21:40.203Z,79.41
2018-07-28T04:24:09.623Z,79.24
2018-07-28T04:26:39.151Z,79.11
2018-07-28T04:29:08.544Z,78.60
2018-07-28T04:31:37.933Z,77.65
2018-07-28T04:34:07.356Z,76.74
2018-07-28T04:36:36.724Z,76.35
2018-07-28T04:39:09.523Z,76.43
2018-07-28T04:41:40.020Z,76.47
2018-07-28T04:44:09.553Z,76.14
2018-07-28T04:46:38.909Z,76.18
2018-07-28T04:49:08.681Z,76.50
2018-07-28T04:51:38.916Z,76.29
2018-07-28T04:54:08.465Z,75.98
2018-07-28T04:56:37.849Z,75.43
2018-07-28T04:59:07.380Z,75.69
2018-07-28T05:01:37.004Z,75.02
2018-07-28T05:04:06.353Z,74.57
2018-07-28T05:06:35.781Z,73.74
2018-07-28T05:09:08.070Z,74.13
2018-07-28T05:11:38.547Z,74.20
2018-07-28T05:14:08.597Z,74.49
2018-07-28T05:16:37.960Z,74.59
2018-07-28T05:19:07.325Z,74.36
2018-07-28T05:21:37.829Z,74.41
2018-07-28T05:24:07.436Z,75.28
2018-07-28T05:26:37.164Z,75.07
2018-07-28T05:29:06.864Z,75.07
2018-07-28T05:31:36.953Z,74.99
2018-07-28T05:34:06.328Z,75.33
2018-07-28T05:36:35.692Z,75.39
2018-07-28T05:39:10.205Z,75.35
2018-07-28T05:41:41.036Z,75.42
2018-07-28T05:44:10.396Z,76.23
2018-07-28T05:46:39.724Z,76.47
2018-07-28T05:49:09.086Z,76.90
2018-07-28T05:51:38.963Z,76.36
2018-07-28T05:54:08.519Z,76.29
2018-07-28T05:56:37.876Z,75.89
2018-07-28T05:59:07.280Z,76.07
2018-07-28T06:01:36.626Z,74.94
2018-07-28T06:04:06.028Z,75.66
2018-07-28T06:06:35.368Z,75.13
2018-07-28T06:09:07.037Z,74.45
2018-07-28T06:11:37.356Z,74.73
2018-07-28T06:14:07.148Z,74.17
2018-07-28T06:16:37.107Z,74.35
2018-07-28T06:19:07.044Z,74.33
2018-07-28T06:21:36.427Z,73.61
2018-07-28T06:24:05.885Z,72.93
2018-07-28T06:26:35.276Z,72.30
2018-07-28T06:29:05.517Z,71.78
2018-07-28T06:31:35.422Z,71.92
2018-07-28T06:34:04.974Z,71.72
2018-07-28T06:36:38.111Z,71.72
2018-07-28T06:39:10.240Z,71.57
2018-07-28T06:41:40.728Z,71.42
2018-07-28T06:44:14.178Z,71.37
2018-07-28T06:46:44.144Z,70.64
2018-07-28T06:49:14.533Z,70.28
2018-07-28T06:51:43.924Z,70.23
2018-07-28T06:54:13.354Z,70.39
2018-07-28T06:56:42.723Z,70.58
2018-07-28T06:59:12.179Z,70.10
2018-07-28T07:01:41.889Z,69.95
2018-07-28T07:04:11.237Z,70.03
2018-07-28T07:06:40.628Z,70.62
2018-07-28T07:09:11.430Z,70.50
2018-07-28T07:11:40.947Z,70.32
2018-07-28T07:14:10.748Z,69.98
2018-07-28T07:16:40.441Z,68.93
2018-07-28T07:19:09.810Z,69.07
2018-07-28T07:21:39.406Z,67.82
2018-07-28T07:24:10.704Z,67.65
2018-07-28T07:26:43.193Z,67.24
2018-07-28T07:29:12.785Z,66.80
2018-07-28T07:31:42.883Z,65.56
2018-07-28T07:34:12.633Z,65.74
2018-07-28T07:36:43.075Z,66.08
2018-07-28T07:39:12.784Z,65.93
2018-07-28T07:41:42.479Z,66.33
2018-07-28T07:44:12.633Z,65.59
2018-07-28T07:46:42.020Z,65.31
2018-07-28T07:49:12.696Z,64.77
2018-07-28T07:51:46.208Z,64.50
2018-07-28T07:54:16.026Z,64.02
2018-07-28T07:56:45.904Z,63.60
2018-07-28T07:59:16.292Z,63.36
2018-07-28T08:01:47.169Z,62.80
2018-07-28T08:04:16.528Z,61.71
2018-07-28T08:06:46.557Z,62.00
2018-07-28T08:09:15.930Z,62.00
2018-07-28T08:11:45.275Z,61.92
2018-07-28T08:14:15.430Z,61.89
2018-07-28T08:16:44.759Z,61.52
2018-07-28T08:19:14.096Z,60.79
2018-07-28T08:21:44.271Z,60.54
2018-07-28T08:24:13.616Z,60.88
2018-07-28T08:26:44.194Z,60.36
2018-07-28T08:29:14.927Z,59.84
2018-07-28T08:31:44.287Z,60.09
2018-07-28T08:34:13.670Z,59.22
2018-07-28T08:36:43.032Z,58.54
2018-07-28T08:39:14.663Z,58.12
2018-07-28T08:41:44.545Z,58.26
2018-07-28T08:44:14.757Z,57.94
2018-07-28T08:46:44.421Z,59.00
2018-07-28T08:49:13.811Z,58.20
2018-07-28T08:51:43.331Z,57.56
2018-07-28T08:54:12.707Z,57.00
2018-07-28T08:56:42.075Z,57.06
2018-07-28T08:59:11.809Z,56.92
2018-07-28T09:01:41.201Z,57.39
2018-07-28T09:04:10.594Z,57.26
2018-07-28T09:06:39.946Z,56.53
2018-07-28T09:09:10.440Z,56.15
2018-07-28T09:11:39.860Z,56.21
2018-07-28T09:14:09.880Z,56.08
2018-07-28T09:16:40.212Z,55.88
2018-07-28T09:19:09.556Z,55.25
2018-07-28T09:21:38.937Z,55.62
2018-07-28T09:24:08.314Z,55.06
2018-07-28T09:26:38.624Z,54.92
2018-07-28T09:29:07.999Z,53.63
2018-07-28T09:31:37.367Z,54.18
2018-07-28T09:34:06.783Z,54.38
2018-07-28T09:36:36.154Z,54.52
2018-07-28T09:39:09.030Z,53.62
2018-07-28T09:41:38.417Z,53.03
2018-07-28T09:44:07.961Z,52.34
2018-07-28T09:46:37.632Z,52.33
2018-07-28T09:49:07.356Z,51.57
2018-07-28T09:51:37.707Z,51.93
2018-07-28T09:54:07.102Z,51.86
2018-07-28T09:56:39.023Z,51.49
2018-07-28T09:59:08.424Z,51.97
2018-07-28T10:01:37.760Z,50.93
2018-07-28T10:04:07.148Z,50.20
2018-07-28T10:06:36.796Z,50.82
2018-07-28T10:09:09.421Z,50.30
2018-07-28T10:11:39.545Z,49.23
2018-07-28T10:14:09.414Z,50.34
2018-07-28T10:16:38.818Z,49.54
2018-07-28T10:19:08.183Z,49.56
2018-07-28T10:21:37.585Z,49.22
2018-07-28T10:24:07.245Z,50.04
2018-07-28T10:26:36.697Z,49.64
2018-07-28T10:29:06.083Z,48.48
2018-07-28T10:31:35.810Z,47.53
2018-07-28T10:34:05.212Z,47.23
2018-07-28T10:36:36.264Z,46.69
2018-07-28T10:39:10.359Z,47.64
2018-07-28T10:41:39.767Z,47.55
2018-07-28T10:44:09.140Z,46.68
2018-07-28T10:46:38.484Z,45.82
2018-07-28T10:49:07.953Z,46.03
2018-07-28T10:51:37.327Z,45.16
2018-07-28T10:54:07.109Z,44.72
2018-07-28T10:56:36.837Z,45.82
2018-07-28T10:59:06.308Z,45.54
2018-07-28T11:01:39.169Z,45.74
2018-07-28T11:04:08.565Z,44.83
2018-07-28T11:06:37.970Z,44.14
2018-07-28T11:09:09.391Z,43.80
2018-07-28T11:11:39.989Z,44.54
2018-07-28T11:14:09.989Z,43.55
2018-07-28T11:16:39.736Z,43.27
2018-07-28T11:19:09.210Z,42.77
2018-07-28T11:21:39.466Z,43.15
2018-07-28T11:24:09.956Z,44.22
2018-07-28T11:26:40.084Z,43.57
2018-07-28T11:29:09.444Z,41.65
2018-07-28T11:31:50.047Z,41.07
2018-07-28T11:34:30.590Z,41.74
2018-07-28T11:37:13.007Z,41.49
2018-07-28T11:39:53.320Z,40.39
2018-07-28T11:42:37.971Z,41.08
2018-07-28T11:45:16.558Z,41.59
2018-07-28T11:47:45.928Z,41.83
2018-07-28T11:50:15.336Z,41.58
2018-07-28T11:52:45.100Z,40.90
2018-07-28T11:55:16.928Z,40.62
2018-07-28T11:57:46.349Z,39.71
2018-07-28T12:00:15.921Z,39.68
2018-07-28T12:02:45.309Z,39.38
2018-07-28T12:05:14.677Z,39.45
2018-07-28T12:07:45.397Z,40.02
2018-07-28T12:10:14.809Z,40.16
2018-07-28T12:12:47.612Z,39.67
2018-07-28T12:15:18.137Z,38.71
2018-07-28T12:17:47.586Z,38.80
2018-07-28T12:20:17.015Z,38.38
2018-07-28T12:22:46.387Z,37.73
2018-07-28T12:25:16.157Z,37.02
2018-07-28T12:27:46.179Z,37.00
2018-07-28T12:30:16.076Z,37.26
2018-07-28T12:32:46.284Z,36.30
2018-07-28T12:35:15.632Z,36.58
2018-07-28T12:37:45.636Z,37.00
2018-07-28T12:40:15.336Z,37.39
2018-07-28T12:42:44.737Z,36.87
2018-07-28T12:45:14.682Z,36.67
2018-07-28T12:47:44.068Z,37.08
2018-07-28T12:50:13.434Z,37.60
2018-07-28T12:52:43.663Z,37.16
2018-07-28T12:55:13.105Z,37.41
2018-07-28T12:57:42.627Z,38.87
2018-07-28T13:00:11.997Z,39.48
2018-07-28T13:02:42.903Z,39.10
2018-07-28T13:05:12.303Z,39.36
2018-07-28T13:07:41.757Z,40.10
2018-07-28T13:10:11.305Z,40.44
2018-07-28T13:12:40.829Z,41.21
2018-07-28T13:15:10.215Z,40.71
2018-07-28T13:17:40.271Z,39.82
2018-07-28T13:20:09.644Z,39.94
2018-07-28T13:22:40.341Z,39.05
2018-07-28T13:25:09.752Z,38.07
2018-07-28T13:27:39.696Z,38.59
2018-07-28T13:30:10.054Z,38.70
2018-07-28T13:32:39.422Z,38.04
2018-07-28T13:35:08.816Z,37.23
2018-07-28T13:37:38.931Z,37.92
2018-07-28T13:40:08.540Z,37.20
2018-07-28T13:42:38.605Z,37.72
2018-07-28T13:45:08.416Z,37.49
2018-07-28T13:47:37.806Z,37.66
2018-07-28T13:50:07.535Z,37.36
2018-07-28T13:52:36.925Z,38.24
2018-07-28T13:55:08.945Z,37.85
2018-07-28T13:57:38.356Z,37.05
2018-07-28T14:00:08.293Z,37.11
2018-07-28T14:02:37.669Z,37.28
2018-07-28T14:05:07.101Z,36.09
2018-07-28T14:07:37.293Z,36.61
2018-07-28T14:10:07.708Z,37.23
2018-07-28T14:12:38.056Z,37.60
2018-07-28T14:15:08.766Z,36.72
2018-07-28T14:17:38.424Z,36.63
2018-07-28T14:20:08.173Z,36.50
2018-07-28T14:22:38.104Z,36.82
2018-07-28T14:25:08.150Z,36.39
2018-07-28T14:27:39.768Z,36.23
2018-07-28T14:30:09.920Z,36.62
2018-07-28T14:32:39.265Z,38.63
2018-07-28T14:35:08.976Z,39.39
2018-07-28T14:37:40.896Z,39.97
2018-07-28T14:40:10.424Z,39.98
2018-07-28T14:42:40.874Z,40.26
2018-07-28T14:45:11.224Z,40.08
2018-07-28T14:47:40.852Z,39.98
2018-07-28T14:50:10.229Z,40.53
2018-07-28T14:52:39.590Z,40.46
2018-07-28T14:55:09.098Z,40.71
2018-07-28T14:57:39.843Z,41.41
2018-07-28T15:00:10.023Z,41.05
2018-07-28T15:02:39.401Z,41.82
2018-07-28T15:05:09.113Z,42.30
2018-07-28T15:07:38.486Z,42.55
2018-07-28T15:10:08.161Z,41.95
2018-07-28T15:12:38.486Z,42.44
2018-07-28T15:15:08.846Z,42.96
2018-07-28T15:17:40.011Z,42.73
2018-07-28T15:20:09.388Z,42.38
2018-07-28T15:22:38.749Z,42.23
2018-07-28T15:25:08.452Z,41.56
2018-07-28T15:27:38.024Z,42.27
2018-07-28T15:30:08.338Z,41.76
2018-07-28T15:32:37.686Z,41.81
2018-07-28T15:35:07.072Z,41.28
2018-07-28T15:37:37.751Z,41.90
2018-07-28T15:40:07.176Z,42.29
2018-07-28T15:42:38.530Z,42.33
2018-07-28T15:45:08.983Z,42.87
2018-07-28T15:47:38.344Z,42.28
2018-07-28T15:50:08.074Z,42.52
2018-07-28T15:52:37.420Z,42.81
2018-07-28T15:55:07.251Z,43.64
2018-07-28T15:57:36.621Z,43.05
2018-07-28T16:00:06.473Z,42.63
2018-07-28T16:02:35.865Z,42.81
2018-07-28T16:05:06.017Z,42.45
2018-07-28T16:07:35.855Z,42.34
2018-07-28T16:10:06.808Z,43.21
2018-07-28T16:12:36.791Z,43.18
2018-07-28T16:15:07.579Z,43.18
2018-07-28T16:17:37.049Z,43.44
2018-07-28T16:20:06.718Z,43.58
2018-07-28T16:22:36.231Z,43.87
2018-07-28T16:25:06.678Z,45.24
2018-07-28T16:27:36.570Z,44.69
2018-07-28T16:30:08.500Z,45.07
2018-07-28T16:32:37.932Z,45.26
2018-07-28T16:35:08.519Z,43.92
2018-07-28T16:37:40.596Z,44.37
2018-07-28T16:40:12.017Z,44.75
2018-07-28T16:42:42.521Z,44.71
2018-07-28T16:45:11.919Z,44.29
2018-07-28T16:47:41.302Z,44.33
2018-07-28T16:50:11.064Z,44.75
2018-07-28T16:52:40.649Z,45.23
2018-07-28T16:55:10.748Z,45.55
2018-07-28T16:57:40.097Z,45.47
2018-07-28T17:00:10.861Z,45.97
2018-07-28T17:02:40.660Z,45.52
2018-07-28T17:05:11.111Z,45.25
2018-07-28T17:07:40.870Z,45.70
2018-07-28T17:10:10.468Z,46.33
2018-07-28T17:12:41.178Z,46.38
2018-07-28T17:15:11.572Z,46.34
2018-07-28T17:17:40.953Z,46.19
2018-07-28T17:20:10.361Z,45.83
2018-07-28T17:22:40.243Z,45.66
2018-07-28T17:25:09.721Z,45.25
2018-07-28T17:27:42.880Z,45.75
2018-07-28T17:30:12.280Z,45.76
2018-07-28T17:32:42.589Z,45.64
2018-07-28T17:35:12.525Z,45.81
2018-07-28T17:37:43.480Z,46.57
2018-07-28T17:40:12.886Z,46.74
2018-07-28T17:42:42.255Z,46.11
2018-07-28T17:45:12.211Z,46.36
2018-07-28T17:47:41.583Z,46.56
2018-07-28T17:50:11.015Z,46.02
2018-07-28T17:52:42.310Z,46.63
2018-07-28T17:55:11.805Z,47.10
2018-07-28T17:57:41.532Z,46.92
2018-07-28T18:00:11.775Z,47.44
2018-07-28T18:02:42.591Z,47.13
2018-07-28T18:05:12.094Z,47.62
2018-07-28T18:07:43.112Z,47.68
2018-07-28T18:10:12.485Z,47.27
2018-07-28T18:12:41.835Z,47.76
2018-07-28T18:15:11.794Z,47.43
2018-07-28T18:17:41.229Z,48.36
2018-07-28T18:20:11.652Z,48.20
2018-07-28T18:22:41.099Z,48.63
2018-07-28T18:25:11.901Z,48.06
2018-07-28T18:27:42.138Z,48.49
2018-07-28T18:30:11.588Z,47.98
2018-07-28T18:32:41.128Z,48.38
2018-07-28T18:35:10.854Z,48.30
2018-07-28T18:37:40.234Z,48.92
2018-07-28T18:40:10.587Z,48.64
2018-07-28T18:42:40.053Z,48.76
2018-07-28T18:45:12.833Z,49.21
2018-07-28T18:47:42.236Z,49.01
2018-07-28T18:50:16.448Z,48.71
2018-07-28T18:52:46.055Z,49.18
2018-07-28T18:55:15.813Z,49.10
2018-07-28T18:57:45.989Z,49.88
2018-07-28T19:00:17.379Z,49.43
2018-07-28T19:02:47.955Z,50.37
2018-07-28T19:05:18.625Z,50.77
2018-07-28T19:07:53.296Z,51.67
2018-07-28T19:10:35.289Z,51.65
2018-07-28T19:13:10.196Z,52.46
2018-07-28T19:15:39.868Z,53.70
2018-07-28T19:18:14.483Z,52.61
2018-07-28T19:20:44.769Z,54.17
2018-07-28T19:23:19.436Z,55.51
2018-07-28T19:25:49.530Z,55.98
2018-07-28T19:28:24.112Z,56.66
2018-07-28T19:30:53.568Z,58.45
2018-07-28T19:33:23.098Z,59.23
2018-07-28T19:35:59.270Z,59.91
2018-07-28T19:38:29.271Z,60.88
2018-07-28T19:40:59.410Z,61.29
2018-07-28T19:43:29.589Z,60.88
2018-07-28T19:45:59.962Z,60.79
2018-07-28T19:48:30.334Z,61.10
2018-07-28T19:51:04.948Z,61.29
2018-07-28T19:53:34.373Z,60.85
2018-07-28T19:56:04.454Z,61.35
2018-07-28T19:58:39.549Z,61.59
2018-07-28T20:01:13.730Z,61.91
2018-07-28T20:03:44.139Z,61.79
2018-07-28T20:06:13.984Z,62.04
2018-07-28T20:08:45.410Z,62.20
2018-07-28T20:11:15.592Z,62.36
2018-07-28T20:13:45.413Z,62.37
2018-07-28T20:16:14.996Z,62.26
2018-07-28T20:18:45.720Z,62.76
2018-07-28T20:21:15.908Z,61.89
2018-07-28T20:23:45.270Z,61.82
2018-07-28T20:26:15.413Z,61.76
2018-07-28T20:28:45.466Z,61.94
2018-07-28T20:31:14.832Z,62.03
2018-07-28T20:33:44.198Z,62.69
2018-07-28T20:36:17.856Z,62.71
2018-07-28T20:38:47.677Z,62.22
2018-07-28T20:41:19.713Z,62.29
2018-07-28T20:43:49.397Z,62.59
2018-07-28T20:46:18.788Z,62.95
2018-07-28T20:48:49.047Z,62.89
2018-07-28T20:51:19.754Z,63.38
2018-07-28T20:53:49.110Z,63.65
2018-07-28T20:56:18.463Z,64.57
2018-07-28T20:58:48.403Z,64.51
2018-07-28T21:01:21.601Z,64.05
2018-07-28T21:03:51.315Z,63.89
2018-07-28T21:06:21.371Z,64.04
2018-07-28T21:08:50.789Z,63.48
2018-07-28T21:11:20.145Z,63.87
2018-07-28T21:13:49.514Z,64.68
2018-07-28T21:16:23.303Z,65.28
2018-07-28T21:18:52.925Z,65.61
2018-07-28T21:21:22.271Z,66.19
2018-07-28T21:23:51.644Z,65.94
2018-07-28T21:26:21.041Z,65.21
2018-07-28T21:28:50.442Z,65.05
2018-07-28T21:31:19.816Z,64.77
2018-07-28T21:33:49.606Z,64.54
2018-07-28T21:36:19.016Z,64.73
2018-07-28T21:38:48.414Z,63.96
2018-07-28T21:41:17.839Z,64.42
2018-07-28T21:43:47.241Z,64.72
2018-07-28T21:46:16.619Z,64.67
2018-07-28T21:48:45.974Z,64.94
2018-07-28T21:51:15.889Z,64.34
2018-07-28T21:53:45.317Z,64.40
2018-07-28T21:56:14.764Z,64.94
2018-07-28T21:58:44.136Z,64.83
2018-07-28T22:01:16.470Z,64.51
2018-07-28T22:03:46.157Z,65.05
2018-07-28T22:06:15.533Z,65.20
2018-07-28T22:08:44.912Z,65.29
2018-07-28T22:11:14.922Z,65.48
2018-07-28T22:13:44.530Z,65.34
2018-07-28T22:16:13.943Z,65.25
2018-07-28T22:18:43.797Z,65.31
2018-07-28T22:21:13.687Z,65.55
2018-07-28T22:23:43.657Z,66.01
2018-07-28T22:26:13.064Z,66.28
2018-07-28T22:28:42.536Z,66.29
2018-07-28T22:31:14.188Z,66.02
2018-07-28T22:33:43.589Z,66.27
2018-07-28T22:36:13.241Z,66.31
2018-07-28T22:38:42.652Z,66.25
2018-07-28T22:41:12.540Z,66.48
2018-07-28T22:43:42.127Z,66.47
2018-07-28T22:46:11.611Z,67.08
2018-07-28T22:48:41.132Z,66.76
2018-07-28T22:51:11.184Z,66.61
2018-07-28T22:53:40.625Z,66.12
2018-07-28T22:56:10.276Z,66.23
2018-07-28T22:58:39.629Z,66.22
2018-07-28T23:01:09.339Z,66.16
2018-07-28T23:03:38.911Z,66.01
2018-07-28T23:06:08.315Z,64.79
2018-07-28T23:08:38.242Z,64.76
2018-07-28T23:11:07.979Z,63.69
2018-07-28T23:13:38.833Z,63.09
2018-07-28T23:16:08.196Z,62.81
2018-07-28T23:18:37.604Z,62.01
2018-07-28T23:21:07.646Z,62.30
2018-07-28T23:23:37.001Z,61.83
2018-07-28T23:26:06.387Z,60.91
2018-07-28T23:28:35.750Z,61.15
2018-07-28T23:31:05.559Z,60.23
2018-07-28T23:33:34.919Z,60.14
2018-07-28T23:36:05.483Z,59.52
2018-07-28T23:38:34.855Z,59.29
2018-07-28T23:41:04.517Z,58.91
2018-07-28T23:43:33.973Z,59.28
2018-07-28T23:46:03.380Z,58.90
2018-07-28T23:48:32.824Z,58.77
2018-07-28T23:51:02.285Z,58.17
2018-07-28T23:53:31.786Z,58.75
2018-07-28T23:56:01.774Z,58.66
2018-07-28T23:58:32.891Z,57.92
